createdAt,value
2023-04-01T00:00:08.263Z,10.12
2023-04-01T00:01:08.611Z,10.10
2023-04-01T00:02:09.030Z,10.10
2023-04-01T00:03:09.429Z,10.10
2023-04-01T00:04:09.671Z,10.09
2023-04-01T00:05:10.025Z,10.09
2023-04-01T00:06:10.389Z,10.09
2023-04-01T00:07:10.752Z,10.07
2023-04-01T00:08:11.684Z,10.05
2023-04-01T00:09:11.436Z,10.07
2023-04-01T00:10:11.796Z,10.07
2023-04-01T00:11:12.163Z,10.05
2023-04-01T00:12:12.532Z,10.05
2023-04-01T00:13:12.868Z,10.04
2023-04-01T00:14:13.216Z,10.04
2023-04-01T00:15:13.538Z,10.05
2023-04-01T00:16:21.746Z,10.05
2023-04-01T00:17:14.256Z,10.04
2023-04-01T00:18:14.739Z,10.05
2023-04-01T00:19:14.963Z,10.04
2023-04-01T00:20:15.323Z,10.02
2023-04-01T00:21:15.698Z,10.01
2023-04-01T00:22:16.051Z,10.02
2023-04-01T00:23:16.436Z,10.02
2023-04-01T00:24:16.801Z,10.01
2023-04-01T00:25:17.136Z,10.02
2023-04-01T00:26:17.491Z,10.02
2023-04-01T00:27:17.858Z,10.04
2023-04-01T00:28:18.238Z,10.05
2023-04-01T00:29:18.549Z,10.05
2023-04-01T00:30:18.934Z,10.04
2023-04-01T00:31:19.293Z,10.04
2023-04-01T00:32:19.619Z,10.02
2023-04-01T00:33:20.011Z,10.02
2023-04-01T00:34:20.335Z,10.04
2023-04-01T00:35:20.675Z,10.02
2023-04-01T00:36:21.136Z,10.02
2023-04-01T00:37:21.358Z,10.02
2023-04-01T00:38:21.773Z,10.04
2023-04-01T00:39:22.070Z,10.04
2023-04-01T00:40:22.486Z,10.04
2023-04-01T00:41:22.919Z,10.05
2023-04-01T00:42:23.153Z,10.05
2023-04-01T00:43:23.620Z,10.05
2023-04-01T00:44:23.878Z,10.04
2023-04-01T00:45:24.233Z,10.04
2023-04-01T00:46:24.620Z,10.05
2023-04-01T00:47:24.990Z,10.04
2023-04-01T00:48:25.344Z,10.04
2023-04-01T00:49:25.697Z,10.04
2023-04-01T00:50:26.045Z,10.05
2023-04-01T00:51:26.430Z,10.05
2023-04-01T00:52:26.774Z,10.04
2023-04-01T00:53:27.160Z,10.04
2023-04-01T00:54:27.461Z,10.05
2023-04-01T00:55:27.820Z,10.04
2023-04-01T00:56:28.209Z,10.05
2023-04-01T00:57:28.563Z,10.04
2023-04-01T00:58:28.955Z,10.05
2023-04-01T00:59:29.276Z,10.05
2023-04-01T01:00:29.633Z,10.07
2023-04-01T01:01:30.052Z,10.07
2023-04-01T01:02:30.484Z,10.05
2023-04-01T01:03:30.715Z,10.07
2023-04-01T01:04:31.058Z,10.09
2023-04-01T01:05:34.208Z,10.07
2023-04-01T01:06:31.718Z,10.07
2023-04-01T01:07:32.086Z,10.07
2023-04-01T01:08:32.443Z,10.07
2023-04-01T01:09:32.927Z,10.07
2023-04-01T01:10:33.147Z,10.09
2023-04-01T01:11:37.041Z,10.09
2023-04-01T01:12:33.852Z,10.07
2023-04-01T01:13:34.207Z,10.07
2023-04-01T01:14:34.597Z,10.07
2023-04-01T01:15:34.908Z,10.07
2023-04-01T01:16:35.301Z,10.07
2023-04-01T01:17:35.676Z,10.05
2023-04-01T01:18:35.975Z,10.05
2023-04-01T01:19:36.460Z,10.05
2023-04-01T01:20:36.709Z,10.05
2023-04-01T01:21:37.071Z,10.04
2023-04-01T01:22:37.441Z,10.04
2023-04-01T01:23:37.764Z,10.04
2023-04-01T01:24:38.138Z,10.01
2023-04-01T01:25:38.553Z,10.02
2023-04-01T01:26:38.854Z,10.01
2023-04-01T01:27:39.206Z,10.01
2023-04-01T01:28:39.590Z,9.99
2023-04-01T01:29:39.965Z,9.99
2023-04-01T01:30:40.311Z,9.99
2023-04-01T01:31:40.655Z,10.01
2023-04-01T01:32:40.983Z,9.99
2023-04-01T01:33:41.311Z,9.98
2023-04-01T01:34:41.690Z,9.99
2023-04-01T01:35:42.074Z,9.98
2023-04-01T01:36:42.335Z,9.97
2023-04-01T01:37:42.674Z,9.95
2023-04-01T01:38:43.029Z,9.97
2023-04-01T01:39:43.384Z,9.97
2023-04-01T01:40:43.711Z,9.97
2023-04-01T01:41:44.034Z,9.94
2023-04-01T01:42:44.396Z,9.95
2023-04-01T01:43:44.718Z,9.94
2023-04-01T01:44:45.100Z,9.92
2023-04-01T01:45:45.405Z,9.94
2023-04-01T01:46:46.339Z,9.92
2023-04-01T01:47:46.152Z,9.94
2023-04-01T01:48:46.415Z,9.94
2023-04-01T01:49:46.839Z,9.92
2023-04-01T01:50:47.104Z,9.92
2023-04-01T01:51:47.461Z,9.92
2023-04-01T01:52:47.784Z,9.92
2023-04-01T01:53:48.111Z,9.92
2023-04-01T01:54:48.472Z,9.94
2023-04-01T01:55:48.768Z,9.92
2023-04-01T01:56:49.121Z,9.92
2023-04-01T01:57:49.433Z,9.92
2023-04-01T01:58:49.782Z,9.92
2023-04-01T01:59:50.145Z,9.92
2023-04-01T02:00:50.477Z,9.91
2023-04-01T02:01:50.830Z,9.91
2023-04-01T02:02:51.237Z,9.92
2023-04-01T02:03:51.509Z,9.91
2023-04-01T02:04:51.909Z,9.91
2023-04-01T02:05:52.203Z,9.91
2023-04-01T02:06:52.551Z,9.91
2023-04-01T02:07:52.895Z,9.91
2023-04-01T02:08:53.305Z,9.89
2023-04-01T02:09:53.583Z,9.91
2023-04-01T02:10:53.932Z,9.91
2023-04-01T02:11:54.273Z,9.91
2023-04-01T02:12:54.637Z,9.89
2023-04-01T02:13:54.990Z,9.91
2023-04-01T02:14:55.371Z,9.91
2023-04-01T02:15:56.828Z,9.87
2023-04-01T02:16:55.996Z,9.87
2023-04-01T02:17:56.369Z,9.87
2023-04-01T02:18:56.680Z,9.86
2023-04-01T02:19:57.099Z,9.86
2023-04-01T02:20:57.372Z,9.86
2023-04-01T02:21:57.716Z,9.87
2023-04-01T02:22:58.050Z,9.86
2023-04-01T02:23:58.420Z,9.84
2023-04-01T02:24:58.746Z,9.83
2023-04-01T02:25:59.092Z,9.83
2023-04-01T02:26:59.453Z,9.83
2023-04-01T02:27:59.778Z,9.82
2023-04-01T02:29:00.204Z,9.82
2023-04-01T02:30:00.469Z,9.83
2023-04-01T02:31:00.849Z,9.83
2023-04-01T02:32:01.166Z,9.83
2023-04-01T02:33:01.544Z,9.83
2023-04-01T02:34:01.850Z,9.83
2023-04-01T02:35:02.215Z,9.83
2023-04-01T02:36:02.589Z,9.82
2023-04-01T02:37:02.927Z,9.83
2023-04-01T02:38:03.248Z,9.82
2023-04-01T02:39:03.609Z,9.83
2023-04-01T02:40:03.982Z,9.82
2023-04-01T02:41:04.276Z,9.82
2023-04-01T02:42:04.617Z,9.83
2023-04-01T02:43:04.993Z,9.83
2023-04-01T02:44:05.304Z,9.83
2023-04-01T02:45:05.677Z,9.82
2023-04-01T02:46:05.979Z,9.83
2023-04-01T02:47:06.390Z,9.83
2023-04-01T02:48:06.714Z,9.83
2023-04-01T02:49:07.011Z,9.83
2023-04-01T02:50:07.432Z,9.83
2023-04-01T02:51:07.726Z,9.83
2023-04-01T02:52:08.090Z,9.82
2023-04-01T02:53:08.439Z,9.83
2023-04-01T02:54:08.735Z,9.83
2023-04-01T02:55:09.112Z,9.82
2023-04-01T02:56:09.433Z,9.82
2023-04-01T02:57:09.776Z,9.83
2023-04-01T02:58:10.120Z,9.80
2023-04-01T02:59:10.455Z,9.82
2023-04-01T03:00:10.854Z,9.80
2023-04-01T03:01:11.173Z,9.83
2023-04-01T03:02:11.584Z,9.82
2023-04-01T03:03:11.862Z,9.82
2023-04-01T03:04:12.198Z,9.80
2023-04-01T03:05:12.563Z,9.80
2023-04-01T03:06:12.924Z,9.82
2023-04-01T03:07:13.258Z,9.80
2023-04-01T03:08:13.621Z,9.82
2023-04-01T03:09:13.974Z,9.83
2023-04-01T03:10:14.304Z,9.83
2023-04-01T03:11:14.649Z,9.80
2023-04-01T03:12:15.035Z,9.80
2023-04-01T03:13:15.356Z,9.82
2023-04-01T03:14:15.692Z,9.82
2023-04-01T03:15:16.016Z,9.80
2023-04-01T03:16:16.445Z,9.80
2023-04-01T03:17:16.739Z,9.82
2023-04-01T03:18:17.061Z,9.82
2023-04-01T03:19:17.385Z,9.83
2023-04-01T03:20:17.745Z,9.80
2023-04-01T03:21:18.061Z,9.82
2023-04-01T03:22:18.404Z,9.80
2023-04-01T03:23:18.731Z,9.82
2023-04-01T03:24:19.116Z,9.80
2023-04-01T03:25:19.438Z,9.82
2023-04-01T03:26:19.749Z,9.80
2023-04-01T03:27:20.096Z,9.80
2023-04-01T03:28:20.462Z,9.79
2023-04-01T03:29:20.819Z,9.80
2023-04-01T03:30:21.237Z,9.80
2023-04-01T03:31:23.256Z,9.82
2023-04-01T03:32:21.843Z,9.80
2023-04-01T03:33:22.179Z,9.80
2023-04-01T03:34:22.501Z,9.80
2023-04-01T03:35:22.861Z,9.80
2023-04-01T03:36:23.335Z,9.80
2023-04-01T03:37:23.551Z,9.82
2023-04-01T03:38:23.872Z,9.82
2023-04-01T03:39:24.230Z,9.80
2023-04-01T03:40:24.608Z,9.80
2023-04-01T03:41:24.908Z,9.82
2023-04-01T03:42:25.298Z,9.80
2023-04-01T03:43:25.609Z,9.80
2023-04-01T03:44:25.976Z,9.80
2023-04-01T03:45:26.306Z,9.80
2023-04-01T03:46:26.695Z,9.80
2023-04-01T03:47:27.010Z,9.80
2023-04-01T03:48:27.309Z,9.79
2023-04-01T03:49:27.678Z,9.82
2023-04-01T03:50:29.144Z,9.80
2023-04-01T03:51:28.298Z,9.80
2023-04-01T03:52:28.670Z,9.77
2023-04-01T03:53:28.996Z,9.79
2023-04-01T03:54:29.399Z,9.80
2023-04-01T03:55:29.706Z,9.79
2023-04-01T03:56:30.032Z,9.77
2023-04-01T03:57:30.481Z,9.77
2023-04-01T03:58:30.737Z,9.76
2023-04-01T03:59:31.065Z,9.77
2023-04-01T04:00:31.450Z,9.79
2023-04-01T04:01:31.772Z,9.79
2023-04-01T04:02:32.144Z,9.80
2023-04-01T04:03:32.543Z,9.79
2023-04-01T04:04:32.859Z,9.79
2023-04-01T04:05:33.311Z,9.80
2023-04-01T04:06:33.476Z,9.77
2023-04-01T04:07:33.793Z,9.79
2023-04-01T04:08:34.132Z,9.79
2023-04-01T04:09:34.462Z,9.80
2023-04-01T04:10:34.820Z,9.77
2023-04-01T04:11:35.117Z,9.77
2023-04-01T04:12:35.472Z,9.77
2023-04-01T04:13:35.834Z,9.76
2023-04-01T04:14:36.229Z,9.77
2023-04-01T04:15:36.517Z,9.77
2023-04-01T04:16:36.895Z,9.80
2023-04-01T04:17:37.234Z,9.77
2023-04-01T04:18:37.665Z,9.77
2023-04-01T04:19:37.899Z,9.77
2023-04-01T04:20:38.291Z,9.79
2023-04-01T04:21:38.617Z,9.79
2023-04-01T04:22:38.937Z,9.77
2023-04-01T04:23:39.279Z,9.79
2023-04-01T04:24:39.652Z,9.79
2023-04-01T04:25:40.025Z,9.77
2023-04-01T04:26:40.368Z,9.79
2023-04-01T04:27:40.594Z,9.77
2023-04-01T04:28:40.875Z,9.79
2023-04-01T04:29:41.157Z,9.76
2023-04-01T04:30:41.480Z,9.74
2023-04-01T04:31:41.772Z,9.76
2023-04-01T04:32:42.059Z,9.74
2023-04-01T04:33:42.323Z,9.76
2023-04-01T04:34:42.574Z,9.76
2023-04-01T04:35:42.896Z,9.74
2023-04-01T04:36:43.171Z,9.76
2023-04-01T04:37:43.400Z,9.76
2023-04-01T04:38:43.699Z,9.76
2023-04-01T04:39:43.996Z,9.74
2023-04-01T04:40:44.328Z,9.76
2023-04-01T04:41:44.539Z,9.77
2023-04-01T04:42:44.849Z,9.76
2023-04-01T04:43:45.123Z,9.76
2023-04-01T04:44:45.381Z,9.76
2023-04-01T04:45:45.705Z,9.76
2023-04-01T04:46:46.051Z,9.73
2023-04-01T04:47:46.309Z,9.74
2023-04-01T04:48:46.527Z,9.74
2023-04-01T04:49:46.841Z,9.74
2023-04-01T04:50:47.122Z,9.73
2023-04-01T04:51:47.395Z,9.74
2023-04-01T04:52:47.682Z,9.73
2023-04-01T04:53:48.565Z,9.73
2023-04-01T04:54:48.245Z,9.73
2023-04-01T04:55:48.469Z,9.74
2023-04-01T04:56:48.771Z,9.74
2023-04-01T04:57:48.879Z,9.74
2023-04-01T04:58:49.145Z,9.74
2023-04-01T04:59:49.419Z,9.73
2023-04-01T05:00:49.763Z,9.73
2023-04-01T05:01:50.096Z,9.74
2023-04-01T05:02:50.310Z,9.73
2023-04-01T05:03:50.370Z,9.73
2023-04-01T05:04:50.639Z,9.74
2023-04-01T05:05:51.151Z,9.74
2023-04-01T05:06:51.106Z,9.73
2023-04-01T05:07:51.403Z,9.74
2023-04-01T05:08:51.697Z,9.73
2023-04-01T05:09:51.885Z,9.74
2023-04-01T05:10:52.083Z,9.74
2023-04-01T05:11:52.329Z,9.74
2023-04-01T05:12:52.632Z,9.76
2023-04-01T05:13:52.792Z,9.76
2023-04-01T05:14:52.981Z,9.76
2023-04-01T05:15:53.274Z,9.76
2023-04-01T05:16:53.611Z,9.76
2023-04-01T05:17:53.779Z,9.77
2023-04-01T05:18:54.014Z,9.76
2023-04-01T05:19:54.181Z,9.77
2023-04-01T05:20:54.488Z,9.76
2023-04-01T05:21:54.750Z,9.76
2023-04-01T05:22:54.908Z,9.76
2023-04-01T05:23:55.237Z,9.76
2023-04-01T05:24:55.400Z,9.77
2023-04-01T05:25:55.586Z,9.76
2023-04-01T05:26:56.981Z,9.77
2023-04-01T05:27:56.019Z,9.77
2023-04-01T05:28:56.184Z,9.77
2023-04-01T05:29:56.345Z,9.77
2023-04-01T05:30:56.684Z,9.77
2023-04-01T05:31:56.702Z,9.77
2023-04-01T05:32:57.012Z,9.80
2023-04-01T05:33:57.287Z,9.80
2023-04-01T05:34:57.534Z,9.82
2023-04-01T05:35:57.911Z,9.80
2023-04-01T05:36:58.111Z,9.80
2023-04-01T05:37:58.500Z,9.82
2023-04-01T05:38:58.681Z,9.83
2023-04-01T05:39:58.992Z,9.82
2023-04-01T05:40:59.324Z,9.82
2023-04-01T05:41:59.565Z,9.83
2023-04-01T05:42:59.872Z,9.80
2023-04-01T05:44:00.063Z,9.83
2023-04-01T05:45:00.341Z,9.83
2023-04-01T05:46:00.566Z,9.83
2023-04-01T05:47:00.684Z,9.83
2023-04-01T05:48:00.883Z,9.83
2023-04-01T05:49:01.156Z,9.83
2023-04-01T05:50:01.514Z,9.87
2023-04-01T05:51:01.752Z,9.86
2023-04-01T05:52:02.026Z,9.86
2023-04-01T05:53:02.447Z,9.84
2023-04-01T05:54:02.461Z,9.86
2023-04-01T05:55:02.675Z,9.83
2023-04-01T05:56:02.810Z,9.87
2023-04-01T05:57:02.989Z,9.89
2023-04-01T05:58:03.143Z,9.87
2023-04-01T05:59:03.303Z,9.87
2023-04-01T06:00:03.511Z,9.89
2023-04-01T06:01:10.214Z,9.87
2023-04-01T06:02:03.823Z,9.87
2023-04-01T06:03:04.123Z,9.89
2023-04-01T06:04:04.431Z,9.91
2023-04-01T06:05:04.594Z,9.89
2023-04-01T06:06:04.765Z,9.91
2023-04-01T06:07:04.925Z,9.89
2023-04-01T06:08:05.212Z,9.91
2023-04-01T06:09:05.505Z,9.91
2023-04-01T06:10:05.689Z,9.89
2023-04-01T06:11:05.976Z,9.91
2023-04-01T06:12:06.142Z,9.91
2023-04-01T06:13:06.305Z,9.91
2023-04-01T06:14:06.667Z,9.91
2023-04-01T06:15:06.920Z,9.91
2023-04-01T06:16:07.236Z,9.92
2023-04-01T06:17:07.384Z,9.91
2023-04-01T06:18:07.597Z,9.92
2023-04-01T06:19:07.874Z,9.91
2023-04-01T06:20:08.036Z,9.91
2023-04-01T06:21:08.341Z,9.89
2023-04-01T06:22:08.595Z,9.91
2023-04-01T06:23:08.772Z,9.92
2023-04-01T06:24:08.925Z,9.89
2023-04-01T06:25:09.239Z,9.89
2023-04-01T06:26:09.549Z,9.91
2023-04-01T06:27:09.820Z,9.89
2023-04-01T06:28:09.989Z,9.89
2023-04-01T06:29:10.306Z,9.89
2023-04-01T06:30:10.471Z,9.87
2023-04-01T06:31:10.841Z,9.86
2023-04-01T06:32:11.000Z,9.86
2023-04-01T06:33:11.299Z,9.80
2023-04-01T06:34:11.515Z,9.23
2023-04-01T06:35:11.795Z,9.03
2023-04-01T06:36:12.166Z,9.02
2023-04-01T06:37:12.389Z,8.91
2023-04-01T06:38:12.534Z,8.87
2023-04-01T06:39:12.855Z,8.81
2023-04-01T06:40:13.140Z,8.81
2023-04-01T06:41:13.353Z,8.81
2023-04-01T06:42:13.472Z,8.69
2023-04-01T06:43:13.648Z,8.69
2023-04-01T06:44:13.848Z,8.67
2023-04-01T06:45:14.008Z,8.66
2023-04-01T06:46:14.211Z,8.64
2023-04-01T06:47:14.365Z,8.61
2023-04-01T06:48:14.680Z,8.63
2023-04-01T06:49:14.823Z,8.60
2023-04-01T06:50:14.992Z,8.61
2023-04-01T06:51:15.321Z,8.61
2023-04-01T06:52:15.558Z,8.60
2023-04-01T06:53:15.764Z,8.58
2023-04-01T06:54:15.921Z,8.53
2023-04-01T06:55:16.092Z,8.55
2023-04-01T06:56:16.271Z,8.51
2023-04-01T06:57:16.444Z,8.51
2023-04-01T06:58:16.595Z,8.45
2023-04-01T06:59:16.758Z,8.42
2023-04-01T07:00:16.939Z,8.42
2023-04-01T07:01:17.257Z,8.45
2023-04-01T07:02:17.531Z,8.48
2023-04-01T07:03:17.817Z,8.42
2023-04-01T07:04:18.119Z,8.34
2023-04-01T07:05:18.278Z,8.28
2023-04-01T07:06:18.559Z,8.31
2023-04-01T07:07:18.736Z,8.30
2023-04-01T07:08:19.014Z,8.33
2023-04-01T07:09:19.347Z,8.30
2023-04-01T07:10:19.472Z,8.27
2023-04-01T07:11:19.661Z,8.26
2023-04-01T07:12:19.812Z,8.23
2023-04-01T07:13:19.991Z,8.26
2023-04-01T07:14:20.171Z,8.27
2023-04-01T07:15:20.363Z,8.30
2023-04-01T07:16:20.698Z,8.27
2023-04-01T07:17:20.864Z,8.24
2023-04-01T07:18:21.079Z,8.19
2023-04-01T07:19:21.310Z,8.16
2023-04-01T07:20:21.619Z,8.18
2023-04-01T07:21:21.767Z,8.13
2023-04-01T07:22:21.928Z,8.08
2023-04-01T07:23:22.216Z,8.12
2023-04-01T07:24:22.399Z,8.00
2023-04-01T07:25:22.572Z,8.05
2023-04-01T07:26:22.773Z,7.98
2023-04-01T07:27:22.942Z,8.03
2023-04-01T07:28:23.097Z,8.01
2023-04-01T07:29:23.396Z,7.94
2023-04-01T07:30:23.550Z,7.91
2023-04-01T07:31:23.900Z,7.93
2023-04-01T07:32:24.097Z,7.95
2023-04-01T07:33:24.330Z,7.91
2023-04-01T07:34:24.516Z,7.94
2023-04-01T07:35:24.807Z,7.88
2023-04-01T07:36:25.124Z,7.93
2023-04-01T07:37:25.267Z,7.87
2023-04-01T07:38:25.589Z,7.94
2023-04-01T07:39:25.735Z,7.95
2023-04-01T07:40:25.911Z,7.83
2023-04-01T07:41:26.156Z,7.82
2023-04-01T07:42:26.250Z,7.83
2023-04-01T07:43:26.475Z,7.88
2023-04-01T07:44:26.612Z,7.80
2023-04-01T07:45:26.783Z,7.85
2023-04-01T07:46:27.035Z,7.90
2023-04-01T07:47:27.172Z,7.85
2023-04-01T07:48:27.438Z,7.82
2023-04-01T07:49:27.599Z,7.80
2023-04-01T07:50:27.799Z,7.76
2023-04-01T07:51:27.967Z,7.76
2023-04-01T07:52:28.248Z,7.77
2023-04-01T07:53:28.432Z,7.63
2023-04-01T07:54:28.750Z,7.60
2023-04-01T07:55:28.915Z,7.66
2023-04-01T07:56:29.104Z,7.60
2023-04-01T07:57:29.327Z,7.63
2023-04-01T07:58:29.446Z,7.70
2023-04-01T07:59:29.613Z,7.73
2023-04-01T08:00:29.955Z,7.75
2023-04-01T08:01:30.103Z,7.79
2023-04-01T08:02:30.364Z,7.79
2023-04-01T08:03:30.614Z,7.67
2023-04-01T08:04:30.629Z,7.61
2023-04-01T08:05:30.929Z,7.53
2023-04-01T08:06:30.943Z,7.51
2023-04-01T08:07:31.115Z,7.63
2023-04-01T08:08:31.404Z,7.69
2023-04-01T08:09:31.588Z,7.73
2023-04-01T08:10:31.766Z,7.75
2023-04-01T08:11:32.089Z,7.70
2023-04-01T08:12:32.232Z,7.70
2023-04-01T08:13:32.526Z,7.70
2023-04-01T08:14:32.712Z,7.70
2023-04-01T08:15:33.140Z,7.70
2023-04-01T08:16:33.153Z,7.76
2023-04-01T08:17:33.289Z,7.76
2023-04-01T08:18:33.437Z,7.73
2023-04-01T08:19:33.638Z,7.80
2023-04-01T08:20:33.828Z,7.70
2023-04-01T08:21:33.962Z,7.73
2023-04-01T08:22:34.132Z,7.79
2023-04-01T08:23:34.307Z,7.69
2023-04-01T08:24:46.602Z,7.63
2023-04-01T08:25:35.261Z,7.70
2023-04-01T08:26:35.072Z,7.69
2023-04-01T08:27:35.260Z,7.54
2023-04-01T08:28:35.429Z,7.60
2023-04-01T08:29:35.597Z,7.63
2023-04-01T08:30:35.782Z,7.69
2023-04-01T08:31:36.007Z,7.57
2023-04-01T08:32:36.252Z,7.53
2023-04-01T08:33:36.299Z,7.58
2023-04-01T08:34:36.475Z,7.58
2023-04-01T08:35:38.445Z,7.66
2023-04-01T08:36:36.978Z,7.60
2023-04-01T08:37:37.128Z,7.51
2023-04-01T08:38:37.291Z,7.38
2023-04-01T08:39:37.497Z,7.25
2023-04-01T08:40:37.786Z,7.33
2023-04-01T08:41:37.979Z,7.21
2023-04-01T08:42:38.154Z,7.23
2023-04-01T08:43:38.433Z,7.24
2023-04-01T08:44:38.590Z,7.28
2023-04-01T08:45:38.806Z,7.23
2023-04-01T08:46:38.958Z,7.25
2023-04-01T08:47:39.145Z,7.23
2023-04-01T08:48:39.291Z,7.21
2023-04-01T08:49:39.456Z,7.23
2023-04-01T08:50:39.645Z,7.21
2023-04-01T08:51:39.841Z,7.28
2023-04-01T08:52:39.987Z,7.28
2023-04-01T08:53:40.189Z,7.25
2023-04-01T08:54:40.331Z,7.28
2023-04-01T08:55:40.510Z,7.28
2023-04-01T08:56:40.704Z,7.28
2023-04-01T08:57:40.875Z,7.25
2023-04-01T08:58:41.215Z,7.31
2023-04-01T08:59:41.343Z,7.31
2023-04-01T09:00:41.497Z,7.25
2023-04-01T09:01:41.815Z,7.23
2023-04-01T09:02:42.032Z,7.28
2023-04-01T09:03:42.301Z,7.25
2023-04-01T09:04:42.555Z,7.32
2023-04-01T09:05:42.720Z,7.35
2023-04-01T09:06:42.923Z,7.32
2023-04-01T09:07:43.084Z,7.29
2023-04-01T09:08:43.404Z,7.32
2023-04-01T09:09:43.552Z,7.35
2023-04-01T09:10:43.857Z,7.32
2023-04-01T09:11:44.043Z,7.32
2023-04-01T09:12:44.183Z,7.25
2023-04-01T09:13:44.352Z,7.28
2023-04-01T09:14:44.655Z,7.35
2023-04-01T09:15:44.837Z,7.31
2023-04-01T09:16:45.141Z,7.24
2023-04-01T09:17:45.316Z,7.24
2023-04-01T09:18:45.464Z,7.25
2023-04-01T09:19:45.629Z,7.18
2023-04-01T09:20:45.795Z,7.25
2023-04-01T09:21:46.085Z,7.17
2023-04-01T09:22:46.375Z,7.13
2023-04-01T09:23:46.528Z,7.06
2023-04-01T09:24:46.721Z,7.17
2023-04-01T09:25:47.017Z,7.14
2023-04-01T09:26:47.234Z,7.15
2023-04-01T09:27:47.477Z,7.23
2023-04-01T09:28:47.628Z,7.23
2023-04-01T09:29:47.822Z,7.18
2023-04-01T09:30:48.125Z,7.03
2023-04-01T09:31:48.396Z,7.07
2023-04-01T09:32:48.547Z,7.05
2023-04-01T09:33:48.621Z,7.00
2023-04-01T09:34:48.922Z,7.07
2023-04-01T09:35:49.300Z,7.06
2023-04-01T09:36:49.435Z,7.00
2023-04-01T09:37:49.557Z,7.14
2023-04-01T09:38:49.735Z,7.06
2023-04-01T09:39:49.917Z,7.07
2023-04-01T09:40:50.100Z,7.06
2023-04-01T09:41:50.445Z,7.14
2023-04-01T09:42:50.567Z,7.03
2023-04-01T09:43:50.762Z,7.06
2023-04-01T09:44:50.918Z,7.11
2023-04-01T09:45:51.181Z,7.11
2023-04-01T09:46:51.313Z,7.10
2023-04-01T09:47:51.492Z,7.20
2023-04-01T09:48:51.632Z,7.15
2023-04-01T09:49:51.820Z,7.10
2023-04-01T09:50:51.998Z,7.17
2023-04-01T09:51:52.165Z,7.17
2023-04-01T09:52:52.401Z,7.20
2023-04-01T09:53:52.495Z,7.23
2023-04-01T09:54:52.679Z,7.24
2023-04-01T09:55:52.989Z,7.23
2023-04-01T09:56:53.186Z,7.23
2023-04-01T09:57:53.352Z,7.21
2023-04-01T09:58:53.620Z,7.13
2023-04-01T09:59:53.780Z,7.20
2023-04-01T10:00:54.090Z,7.24
2023-04-01T10:01:54.309Z,7.29
2023-04-01T10:02:54.516Z,7.23
2023-04-01T10:03:54.606Z,7.15
2023-04-01T10:04:54.910Z,7.10
2023-04-01T10:05:55.235Z,7.21
2023-04-01T10:06:55.401Z,7.18
2023-04-01T10:07:55.548Z,7.15
2023-04-01T10:08:55.765Z,7.17
2023-04-01T10:09:55.916Z,7.20
2023-04-01T10:10:56.086Z,7.21
2023-04-01T10:11:56.392Z,7.21
2023-04-01T10:12:56.548Z,7.24
2023-04-01T10:13:56.835Z,7.28
2023-04-01T10:14:57.032Z,7.33
2023-04-01T10:15:57.222Z,7.33
2023-04-01T10:16:57.391Z,7.28
2023-04-01T10:17:57.596Z,7.28
2023-04-01T10:18:57.871Z,7.35
2023-04-01T10:19:58.049Z,7.29
2023-04-01T10:20:58.227Z,7.28
2023-04-01T10:21:58.434Z,7.29
2023-04-01T10:22:58.596Z,7.29
2023-04-01T10:23:58.778Z,7.32
2023-04-01T10:24:58.957Z,7.29
2023-04-01T10:25:59.150Z,7.31
2023-04-01T10:26:59.436Z,7.32
2023-04-01T10:27:59.505Z,7.31
2023-04-01T10:28:59.682Z,7.32
2023-04-01T10:29:59.859Z,7.33
2023-04-01T10:31:00.052Z,7.32
2023-04-01T10:32:00.294Z,7.36
2023-04-01T10:33:00.465Z,7.40
2023-04-01T10:34:00.584Z,7.35
2023-04-01T10:35:00.763Z,7.40
2023-04-01T10:36:01.101Z,7.47
2023-04-01T10:37:01.261Z,7.45
2023-04-01T10:38:01.442Z,7.45
2023-04-01T10:39:01.612Z,7.51
2023-04-01T10:40:01.887Z,7.40
2023-04-01T10:41:01.968Z,7.38
2023-04-01T10:42:02.200Z,7.38
2023-04-01T10:43:02.460Z,7.43
2023-04-01T10:44:02.626Z,7.48
2023-04-01T10:45:02.814Z,7.45
2023-04-01T10:46:03.055Z,7.36
2023-04-01T10:47:03.218Z,7.39
2023-04-01T10:48:03.448Z,7.33
2023-04-01T10:49:03.689Z,7.33
2023-04-01T10:50:03.939Z,7.31
2023-04-01T10:51:04.114Z,7.33
2023-04-01T10:52:04.321Z,7.38
2023-04-01T10:53:06.142Z,7.35
2023-04-01T10:54:04.652Z,7.33
2023-04-01T10:55:04.973Z,7.39
2023-04-01T10:56:05.155Z,7.33
2023-04-01T10:57:05.429Z,7.33
2023-04-01T10:58:05.496Z,7.36
2023-04-01T10:59:05.691Z,7.35
2023-04-01T11:00:05.863Z,7.43
2023-04-01T11:01:06.057Z,7.47
2023-04-01T11:02:11.431Z,7.50
2023-04-01T11:03:06.461Z,7.51
2023-04-01T11:04:06.717Z,7.47
2023-04-01T11:05:06.886Z,7.42
2023-04-01T11:06:07.072Z,7.48
2023-04-01T11:07:07.293Z,7.53
2023-04-01T11:08:07.580Z,7.51
2023-04-01T11:09:07.896Z,7.50
2023-04-01T11:10:08.052Z,7.48
2023-04-01T11:11:08.244Z,7.53
2023-04-01T11:12:08.434Z,7.47
2023-04-01T11:13:08.849Z,7.42
2023-04-01T11:14:09.022Z,7.53
2023-04-01T11:15:09.257Z,7.54
2023-04-01T11:16:09.506Z,7.56
2023-04-01T11:17:09.711Z,7.48
2023-04-01T11:18:10.067Z,7.53
2023-04-01T11:19:10.190Z,7.56
2023-04-01T11:20:10.446Z,7.47
2023-04-01T11:21:10.866Z,7.48
2023-04-01T11:22:11.092Z,7.57
2023-04-01T11:23:11.342Z,7.53
2023-04-01T11:24:11.535Z,7.47
2023-04-01T11:25:11.732Z,7.45
2023-04-01T11:26:11.909Z,7.40
2023-04-01T11:27:12.141Z,7.40
2023-04-01T11:28:12.412Z,7.47
2023-04-01T11:29:12.723Z,7.40
2023-04-01T11:30:13.123Z,7.47
2023-04-01T11:31:13.359Z,7.45
2023-04-01T11:32:13.650Z,7.43
2023-04-01T11:33:13.866Z,7.45
2023-04-01T11:34:13.954Z,7.40
2023-04-01T11:35:14.198Z,7.48
2023-04-01T11:36:14.330Z,7.47
2023-04-01T11:37:14.518Z,7.47
2023-04-01T11:38:14.642Z,7.45
2023-04-01T11:39:14.866Z,7.51
2023-04-01T11:40:15.123Z,7.48
2023-04-01T11:41:15.294Z,7.48
2023-04-01T11:42:15.529Z,7.53
2023-04-01T11:43:26.137Z,7.50
2023-04-01T11:44:16.094Z,7.48
2023-04-01T11:45:16.372Z,7.56
2023-04-01T11:46:16.474Z,7.51
2023-04-01T11:47:16.783Z,7.47
2023-04-01T11:48:17.068Z,7.45
2023-04-01T11:49:17.245Z,7.48
2023-04-01T11:50:17.496Z,7.54
2023-04-01T11:51:17.667Z,7.51
2023-04-01T11:52:17.880Z,7.51
2023-04-01T11:53:18.058Z,7.53
2023-04-01T11:54:18.348Z,7.56
2023-04-01T11:55:18.540Z,7.63
2023-04-01T11:56:18.727Z,7.67
2023-04-01T11:57:18.996Z,7.66
2023-04-01T11:58:19.216Z,7.70
2023-04-01T11:59:19.401Z,7.70
2023-04-01T12:00:19.690Z,7.67
2023-04-01T12:01:20.450Z,7.67
2023-04-01T12:02:21.270Z,7.61
2023-04-01T12:03:20.267Z,7.66
2023-04-01T12:04:20.453Z,7.63
2023-04-01T12:05:20.730Z,7.61
2023-04-01T12:06:20.892Z,7.58
2023-04-01T12:07:21.083Z,7.57
2023-04-01T12:08:21.301Z,7.53
2023-04-01T12:09:21.459Z,7.51
2023-04-01T12:10:21.771Z,7.54
2023-04-01T12:11:21.936Z,7.57
2023-04-01T12:12:22.139Z,7.43
2023-04-01T12:13:23.190Z,7.43
2023-04-01T12:14:22.569Z,7.48
2023-04-01T12:15:22.769Z,7.50
2023-04-01T12:16:23.151Z,7.47
2023-04-01T12:17:23.226Z,7.47
2023-04-01T12:18:23.413Z,7.45
2023-04-01T12:19:23.582Z,7.50
2023-04-01T12:20:23.766Z,7.50
2023-04-01T12:21:24.059Z,7.50
2023-04-01T12:22:24.242Z,7.38
2023-04-01T12:23:24.606Z,7.33
2023-04-01T12:24:24.732Z,7.39
2023-04-01T12:25:24.895Z,7.35
2023-04-01T12:26:25.181Z,7.29
2023-04-01T12:27:25.283Z,7.38
2023-04-01T12:28:25.451Z,7.38
2023-04-01T12:29:25.631Z,7.42
2023-04-01T12:30:25.820Z,7.38
2023-04-01T12:31:26.054Z,7.35
2023-04-01T12:32:26.372Z,7.35
2023-04-01T12:33:26.467Z,7.33
2023-04-01T12:34:26.785Z,7.33
2023-04-01T12:35:26.977Z,7.31
2023-04-01T12:36:27.115Z,7.28
2023-04-01T12:37:27.370Z,7.25
2023-04-01T12:38:27.483Z,7.23
2023-04-01T12:39:27.632Z,7.28
2023-04-01T12:40:27.812Z,7.25
2023-04-01T12:41:28.003Z,7.18
2023-04-01T12:42:28.212Z,7.13
2023-04-01T12:43:28.350Z,7.17
2023-04-01T12:44:28.551Z,7.20
2023-04-01T12:45:28.839Z,7.10
2023-04-01T12:46:29.100Z,7.06
2023-04-01T12:47:29.355Z,7.03
2023-04-01T12:48:29.372Z,7.00
2023-04-01T12:49:29.577Z,6.95
2023-04-01T12:50:29.748Z,6.97
2023-04-01T12:51:30.011Z,7.00
2023-04-01T12:52:30.253Z,6.95
2023-04-01T12:53:30.397Z,6.99
2023-04-01T12:54:30.590Z,7.03
2023-04-01T12:55:30.858Z,7.03
2023-04-01T12:56:30.972Z,7.02
2023-04-01T12:57:31.270Z,6.95
2023-04-01T12:58:31.334Z,6.92
2023-04-01T12:59:31.677Z,6.96
2023-04-01T13:00:31.951Z,6.96
2023-04-01T13:01:32.400Z,6.92
2023-04-01T13:02:32.457Z,6.89
2023-04-01T13:03:32.612Z,6.92
2023-04-01T13:04:32.762Z,6.88
2023-04-01T13:05:33.139Z,6.82
2023-04-01T13:06:33.234Z,6.87
2023-04-01T13:07:33.459Z,6.75
2023-04-01T13:08:33.588Z,6.74
2023-04-01T13:09:33.839Z,6.81
2023-04-01T13:10:34.255Z,6.81
2023-04-01T13:11:34.137Z,6.79
2023-04-01T13:12:34.378Z,6.77
2023-04-01T13:13:34.530Z,6.78
2023-04-01T13:14:34.817Z,6.81
2023-04-01T13:15:35.090Z,6.79
2023-04-01T13:16:35.205Z,6.82
2023-04-01T13:17:35.511Z,6.81
2023-04-01T13:18:35.555Z,6.79